📊 Raw Sensor Data
Showing records 36351 to 36375 of 84,894 total
| ID | Distance (ft) | Battery V | Battery A | Int Temp (°F) | Int Humid (%) | Ext Temp (°F) | Solar V | RSSI | SNR | Time Stamp |
|---|---|---|---|---|---|---|---|---|---|---|
| 48556 | 15.0 | 3.87 | -5 | 72 | 50 | 72 | 0.10 | -69 | 7 | 08/07/2025 09:45 PM |
| 48555 | 15.0 | 3.94 | -5 | 73 | 50 | 73 | 0.10 | -69 | 8 | 08/07/2025 09:30 PM |
| 48554 | 14.9 | 3.87 | -5 | 74 | 52 | 74 | 0.00 | -70 | 7 | 08/07/2025 09:15 PM |
| 48553 | 15.0 | 3.87 | -5 | 75 | 53 | 74 | 0.00 | -69 | 8 | 08/07/2025 09:00 PM |
| 48552 | 15.0 | 3.94 | -5 | 76 | 55 | 75 | 0.00 | -70 | 8 | 08/07/2025 08:45 PM |
| 48551 | 15.0 | 3.88 | -5 | 79 | 57 | 76 | 0.10 | -69 | 8 | 08/07/2025 08:30 PM |
| 48550 | 15.0 | 3.88 | -5 | 82 | 59 | 78 | 1.40 | -70 | 9 | 08/07/2025 08:15 PM |
| 48549 | 15.0 | 3.86 | -26 | 88 | 59 | 81 | 4.20 | -69 | 7 | 08/07/2025 08:00 PM |
| 48548 | 15.1 | 3.89 | 0 | 94 | 57 | 87 | 4.60 | -70 | 8 | 08/07/2025 07:45 PM |
| 48547 | 15.1 | 3.97 | 0 | 99 | 56 | 90 | 4.50 | -71 | 8 | 08/07/2025 07:30 PM |
| 48546 | 15.2 | 3.98 | 7 | 104 | 54 | 95 | 4.60 | -70 | 8 | 08/07/2025 07:15 PM |
| 48545 | 15.2 | 3.94 | 12 | 107 | 53 | 98 | 4.60 | -70 | 8 | 08/07/2025 07:00 PM |
| 48544 | 15.2 | 4.00 | 17 | 109 | 52 | 102 | 4.60 | -69 | 8 | 08/07/2025 06:45 PM |
| 48543 | 15.3 | 3.93 | 0 | 109 | 52 | 102 | 5.10 | -70 | 8 | 08/07/2025 06:30 PM |
| 48542 | 15.3 | 3.93 | 0 | 110 | 51 | 103 | 5.10 | -70 | 8 | 08/07/2025 06:15 PM |
| 48541 | 15.3 | 3.93 | 0 | 111 | 51 | 101 | 5.10 | -70 | 8 | 08/07/2025 06:00 PM |
| 48540 | 15.3 | 4.12 | 0 | 113 | 49 | 104 | 5.10 | -70 | 8 | 08/07/2025 05:45 PM |
| 48539 | 15.4 | 3.93 | 0 | 115 | 48 | 104 | 5.10 | -69 | 8 | 08/07/2025 05:30 PM |
| 48538 | 15.4 | 3.93 | 0 | 114 | 47 | 105 | 5.10 | -70 | 7 | 08/07/2025 05:15 PM |
| 48537 | 15.4 | 3.93 | 0 | 114 | 47 | 105 | 5.10 | -70 | 7 | 08/07/2025 05:00 PM |
| 48536 | 15.3 | 3.93 | 0 | 114 | 46 | 104 | 5.10 | -69 | 8 | 08/07/2025 04:45 PM |
| 48535 | 15.4 | 3.93 | 0 | 113 | 45 | 104 | 5.10 | -70 | 8 | 08/07/2025 04:30 PM |
| 48534 | 15.4 | 3.93 | 0 | 113 | 45 | 102 | 5.10 | -70 | 8 | 08/07/2025 04:15 PM |
| 48533 | 15.3 | 3.93 | 0 | 112 | 44 | 104 | 5.10 | -70 | 8 | 08/07/2025 04:00 PM |
| 48532 | 15.4 | 3.93 | 0 | 111 | 44 | 101 | 5.10 | -69 | 8 | 08/07/2025 03:45 PM |